sensor_id;sensor_type;location;lat;lon;timestamp;P1;durP1;ratioP1;P2;durP2;ratioP2
71763;SDS011;59602;52.142;5.408;2022-12-18T00:00:03;37.75;;;11.48;;
71763;SDS011;59602;52.142;5.408;2022-12-18T00:02:31;31.23;;;10.27;;
71763;SDS011;59602;52.142;5.408;2022-12-18T00:04:58;37.00;;;11.32;;
71763;SDS011;59602;52.142;5.408;2022-12-18T00:07:25;35.57;;;10.80;;
71763;SDS011;59602;52.142;5.408;2022-12-18T00:09:53;34.88;;;10.50;;
71763;SDS011;59602;52.142;5.408;2022-12-18T00:12:21;35.72;;;11.82;;
71763;SDS011;59602;52.142;5.408;2022-12-18T00:14:48;34.92;;;10.85;;
71763;SDS011;59602;52.142;5.408;2022-12-18T00:17:15;34.97;;;11.77;;
71763;SDS011;59602;52.142;5.408;2022-12-18T00:19:41;38.70;;;11.13;;
71763;SDS011;59602;52.142;5.408;2022-12-18T00:22:08;39.45;;;11.70;;
71763;SDS011;59602;52.142;5.408;2022-12-18T00:24:35;36.17;;;12.05;;
71763;SDS011;59602;52.142;5.408;2022-12-18T00:27:01;38.50;;;12.20;;
71763;SDS011;59602;52.142;5.408;2022-12-18T00:29:28;40.38;;;11.98;;
71763;SDS011;59602;52.142;5.408;2022-12-18T00:31:55;41.23;;;12.40;;
71763;SDS011;59602;52.142;5.408;2022-12-18T00:34:22;37.05;;;11.75;;
71763;SDS011;59602;52.142;5.408;2022-12-18T00:36:48;37.97;;;11.27;;
71763;SDS011;59602;52.142;5.408;2022-12-18T00:39:15;37.72;;;11.00;;
71763;SDS011;59602;52.142;5.408;2022-12-18T00:41:42;43.03;;;12.73;;
71763;SDS011;59602;52.142;5.408;2022-12-18T00:44:27;37.50;;;11.73;;
71763;SDS011;59602;52.142;5.408;2022-12-18T00:46:54;39.38;;;12.85;;
71763;SDS011;59602;52.142;5.408;2022-12-18T00:49:20;37.63;;;11.50;;
71763;SDS011;59602;52.142;5.408;2022-12-18T00:51:47;46.28;;;13.13;;
71763;SDS011;59602;52.142;5.408;2022-12-18T00:54:15;38.95;;;12.63;;
71763;SDS011;59602;52.142;5.408;2022-12-18T00:56:43;35.53;;;11.23;;
71763;SDS011;59602;52.142;5.408;2022-12-18T00:59:15;45.42;;;12.93;;
71763;SDS011;59602;52.142;5.408;2022-12-18T01:01:42;36.90;;;11.55;;
71763;SDS011;59602;52.142;5.408;2022-12-18T01:04:09;38.95;;;13.15;;
71763;SDS011;59602;52.142;5.408;2022-12-18T01:06:36;43.58;;;12.60;;
71763;SDS011;59602;52.142;5.408;2022-12-18T01:09:03;38.90;;;12.03;;
71763;SDS011;59602;52.142;5.408;2022-12-18T01:11:29;35.35;;;11.70;;
71763;SDS011;59602;52.142;5.408;2022-12-18T01:13:57;40.30;;;11.52;;
71763;SDS011;59602;52.142;5.408;2022-12-18T01:16:29;39.28;;;12.15;;
71763;SDS011;59602;52.142;5.408;2022-12-18T01:18:56;34.10;;;12.13;;
71763;SDS011;59602;52.142;5.408;2022-12-18T01:21:23;39.27;;;11.17;;
71763;SDS011;59602;52.142;5.408;2022-12-18T01:23:51;34.40;;;10.73;;
71763;SDS011;59602;52.142;5.408;2022-12-18T01:26:18;43.58;;;12.55;;
71763;SDS011;59602;52.142;5.408;2022-12-18T01:28:46;38.58;;;12.05;;
71763;SDS011;59602;52.142;5.408;2022-12-18T01:31:15;45.80;;;13.88;;
71763;SDS011;59602;52.142;5.408;2022-12-18T01:33:59;39.17;;;12.97;;
71763;SDS011;59602;52.142;5.408;2022-12-18T01:36:28;41.35;;;12.45;;
71763;SDS011;59602;52.142;5.408;2022-12-18T01:38:58;39.70;;;12.50;;
71763;SDS011;59602;52.142;5.408;2022-12-18T01:41:26;37.85;;;11.38;;
71763;SDS011;59602;52.142;5.408;2022-12-18T01:47:18;45.50;;;13.57;;
71763;SDS011;59602;52.142;5.408;2022-12-18T01:49:59;39.13;;;12.10;;
71763;SDS011;59602;52.142;5.408;2022-12-18T01:52:31;41.03;;;10.75;;
71763;SDS011;59602;52.142;5.408;2022-12-18T01:54:59;36.40;;;12.05;;
71763;SDS011;59602;52.142;5.408;2022-12-18T01:57:27;37.15;;;11.85;;
71763;SDS011;59602;52.142;5.408;2022-12-18T01:59:55;38.70;;;12.07;;
71763;SDS011;59602;52.142;5.408;2022-12-18T02:02:26;43.35;;;12.77;;
71763;SDS011;59602;52.142;5.408;2022-12-18T02:04:55;52.70;;;14.82;;
71763;SDS011;59602;52.142;5.408;2022-12-18T02:07:29;43.50;;;13.40;;
71763;SDS011;59602;52.142;5.408;2022-12-18T02:10:20;39.17;;;12.27;;
71763;SDS011;59602;52.142;5.408;2022-12-18T02:12:57;39.07;;;12.07;;
71763;SDS011;59602;52.142;5.408;2022-12-18T02:18:14;33.72;;;11.20;;
71763;SDS011;59602;52.142;5.408;2022-12-18T02:20:49;40.78;;;12.30;;
71763;SDS011;59602;52.142;5.408;2022-12-18T02:23:24;32.40;;;12.30;;
71763;SDS011;59602;52.142;5.408;2022-12-18T02:28:33;37.60;;;10.85;;
71763;SDS011;59602;52.142;5.408;2022-12-18T02:31:06;35.97;;;11.77;;
71763;SDS011;59602;52.142;5.408;2022-12-18T02:33:37;37.80;;;10.90;;
71763;SDS011;59602;52.142;5.408;2022-12-18T02:36:07;40.30;;;12.18;;
71763;SDS011;59602;52.142;5.408;2022-12-18T02:38:37;37.40;;;12.07;;
71763;SDS011;59602;52.142;5.408;2022-12-18T02:41:04;39.38;;;12.52;;
71763;SDS011;59602;52.142;5.408;2022-12-18T02:43:32;37.47;;;11.32;;
71763;SDS011;59602;52.142;5.408;2022-12-18T02:45:59;35.75;;;11.00;;
71763;SDS011;59602;52.142;5.408;2022-12-18T02:48:29;34.47;;;10.55;;
71763;SDS011;59602;52.142;5.408;2022-12-18T02:51:08;32.90;;;10.90;;
71763;SDS011;59602;52.142;5.408;2022-12-18T02:53:43;35.08;;;10.70;;
71763;SDS011;59602;52.142;5.408;2022-12-18T02:56:19;44.03;;;12.77;;
71763;SDS011;59602;52.142;5.408;2022-12-18T02:58:57;36.78;;;11.48;;
71763;SDS011;59602;52.142;5.408;2022-12-18T03:04:30;40.33;;;11.23;;
71763;SDS011;59602;52.142;5.408;2022-12-18T03:07:05;32.40;;;11.15;;
71763;SDS011;59602;52.142;5.408;2022-12-18T03:09:39;33.30;;;11.32;;
71763;SDS011;59602;52.142;5.408;2022-12-18T03:12:10;40.22;;;11.15;;
71763;SDS011;59602;52.142;5.408;2022-12-18T03:14:50;31.40;;;10.80;;
71763;SDS011;59602;52.142;5.408;2022-12-18T03:17:23;33.60;;;11.47;;
71763;SDS011;59602;52.142;5.408;2022-12-18T03:19:52;34.25;;;11.32;;
71763;SDS011;59602;52.142;5.408;2022-12-18T03:22:23;32.00;;;10.80;;
71763;SDS011;59602;52.142;5.408;2022-12-18T03:24:54;31.55;;;10.65;;
71763;SDS011;59602;52.142;5.408;2022-12-18T03:27:23;33.25;;;10.57;;
71763;SDS011;59602;52.142;5.408;2022-12-18T03:30:00;41.53;;;12.27;;
71763;SDS011;59602;52.142;5.408;2022-12-18T03:32:36;34.25;;;10.13;;
71763;SDS011;59602;52.142;5.408;2022-12-18T03:35:08;38.95;;;11.90;;
71763;SDS011;59602;52.142;5.408;2022-12-18T03:37:38;31.33;;;12.15;;
71763;SDS011;59602;52.142;5.408;2022-12-18T03:40:05;33.80;;;11.50;;
71763;SDS011;59602;52.142;5.408;2022-12-18T03:42:49;31.90;;;10.13;;
71763;SDS011;59602;52.142;5.408;2022-12-18T03:45:29;32.90;;;11.02;;
71763;SDS011;59602;52.142;5.408;2022-12-18T03:48:09;30.13;;;10.18;;
71763;SDS011;59602;52.142;5.408;2022-12-18T03:50:45;33.75;;;10.57;;
71763;SDS011;59602;52.142;5.408;2022-12-18T03:55:52;30.93;;;10.60;;
71763;SDS011;59602;52.142;5.408;2022-12-18T03:58:20;33.47;;;9.65;;
71763;SDS011;59602;52.142;5.408;2022-12-18T04:00:51;28.35;;;9.60;;
71763;SDS011;59602;52.142;5.408;2022-12-18T04:03:22;27.67;;;10.13;;
71763;SDS011;59602;52.142;5.408;2022-12-18T04:05:51;29.27;;;10.30;;
71763;SDS011;59602;52.142;5.408;2022-12-18T04:08:20;31.33;;;10.10;;
71763;SDS011;59602;52.142;5.408;2022-12-18T04:10:48;29.67;;;10.18;;
71763;SDS011;59602;52.142;5.408;2022-12-18T04:13:21;31.27;;;10.35;;
71763;SDS011;59602;52.142;5.408;2022-12-18T04:15:49;23.50;;;8.68;;
71763;SDS011;59602;52.142;5.408;2022-12-18T04:18:17;28.58;;;9.60;;
71763;SDS011;59602;52.142;5.408;2022-12-18T04:20:43;27.03;;;9.53;;
71763;SDS011;59602;52.142;5.408;2022-12-18T04:23:10;28.67;;;8.65;;
71763;SDS011;59602;52.142;5.408;2022-12-18T04:25:37;23.20;;;9.30;;
71763;SDS011;59602;52.142;5.408;2022-12-18T04:28:03;25.52;;;8.93;;
71763;SDS011;59602;52.142;5.408;2022-12-18T04:30:30;24.27;;;10.10;;
71763;SDS011;59602;52.142;5.408;2022-12-18T04:32:56;22.47;;;8.90;;
71763;SDS011;59602;52.142;5.408;2022-12-18T04:35:23;25.08;;;8.75;;
71763;SDS011;59602;52.142;5.408;2022-12-18T04:37:49;23.77;;;8.20;;
71763;SDS011;59602;52.142;5.408;2022-12-18T04:40:16;23.48;;;8.63;;
71763;SDS011;59602;52.142;5.408;2022-12-18T04:42:43;26.48;;;9.63;;
71763;SDS011;59602;52.142;5.408;2022-12-18T04:45:10;18.30;;;8.03;;
71763;SDS011;59602;52.142;5.408;2022-12-18T04:47:36;24.95;;;8.52;;
71763;SDS011;59602;52.142;5.408;2022-12-18T04:50:03;22.02;;;8.02;;
71763;SDS011;59602;52.142;5.408;2022-12-18T04:52:30;23.70;;;9.07;;
71763;SDS011;59602;52.142;5.408;2022-12-18T04:54:56;21.65;;;7.68;;
71763;SDS011;59602;52.142;5.408;2022-12-18T04:57:23;22.70;;;7.77;;
71763;SDS011;59602;52.142;5.408;2022-12-18T04:59:51;23.15;;;8.70;;
71763;SDS011;59602;52.142;5.408;2022-12-18T05:02:18;20.58;;;8.55;;
71763;SDS011;59602;52.142;5.408;2022-12-18T05:04:44;19.70;;;7.82;;
71763;SDS011;59602;52.142;5.408;2022-12-18T05:07:11;23.50;;;7.93;;
71763;SDS011;59602;52.142;5.408;2022-12-18T05:09:38;24.60;;;8.23;;
71763;SDS011;59602;52.142;5.408;2022-12-18T05:12:04;17.63;;;7.00;;
71763;SDS011;59602;52.142;5.408;2022-12-18T05:14:31;19.80;;;7.07;;
71763;SDS011;59602;52.142;5.408;2022-12-18T05:16:58;16.45;;;6.75;;
71763;SDS011;59602;52.142;5.408;2022-12-18T05:19:26;20.85;;;7.03;;
71763;SDS011;59602;52.142;5.408;2022-12-18T05:21:53;20.37;;;7.40;;
71763;SDS011;59602;52.142;5.408;2022-12-18T05:24:19;20.45;;;7.63;;
71763;SDS011;59602;52.142;5.408;2022-12-18T05:26:46;19.55;;;7.00;;
71763;SDS011;59602;52.142;5.408;2022-12-18T05:29:12;22.73;;;7.75;;
71763;SDS011;59602;52.142;5.408;2022-12-18T05:31:39;18.92;;;6.28;;
71763;SDS011;59602;52.142;5.408;2022-12-18T05:34:07;16.00;;;6.40;;
71763;SDS011;59602;52.142;5.408;2022-12-18T05:36:35;18.75;;;6.50;;
71763;SDS011;59602;52.142;5.408;2022-12-18T05:39:02;18.55;;;7.25;;
71763;SDS011;59602;52.142;5.408;2022-12-18T05:41:29;16.33;;;6.53;;
71763;SDS011;59602;52.142;5.408;2022-12-18T05:43:56;17.50;;;5.65;;
71763;SDS011;59602;52.142;5.408;2022-12-18T05:46:22;19.20;;;7.27;;
71763;SDS011;59602;52.142;5.408;2022-12-18T05:48:50;14.50;;;6.47;;
71763;SDS011;59602;52.142;5.408;2022-12-18T05:51:18;17.10;;;6.40;;
71763;SDS011;59602;52.142;5.408;2022-12-18T05:53:48;18.92;;;6.50;;
71763;SDS011;59602;52.142;5.408;2022-12-18T05:56:17;15.98;;;6.10;;
71763;SDS011;59602;52.142;5.408;2022-12-18T05:58:47;15.00;;;6.10;;
71763;SDS011;59602;52.142;5.408;2022-12-18T06:01:15;16.08;;;5.28;;
71763;SDS011;59602;52.142;5.408;2022-12-18T06:03:45;17.20;;;6.28;;
71763;SDS011;59602;52.142;5.408;2022-12-18T06:06:15;14.85;;;5.55;;
71763;SDS011;59602;52.142;5.408;2022-12-18T06:08:43;12.38;;;5.50;;
71763;SDS011;59602;52.142;5.408;2022-12-18T06:11:12;17.33;;;6.10;;
71763;SDS011;59602;52.142;5.408;2022-12-18T06:13:39;17.10;;;5.80;;
71763;SDS011;59602;52.142;5.408;2022-12-18T06:16:06;17.48;;;6.15;;
71763;SDS011;59602;52.142;5.408;2022-12-18T06:18:34;16.65;;;6.00;;
71763;SDS011;59602;52.142;5.408;2022-12-18T06:21:06;15.70;;;6.07;;
71763;SDS011;59602;52.142;5.408;2022-12-18T06:23:33;15.27;;;6.20;;
71763;SDS011;59602;52.142;5.408;2022-12-18T06:26:05;21.50;;;7.18;;
71763;SDS011;59602;52.142;5.408;2022-12-18T06:28:33;17.17;;;6.00;;
71763;SDS011;59602;52.142;5.408;2022-12-18T06:31:00;18.58;;;6.43;;
71763;SDS011;59602;52.142;5.408;2022-12-18T06:33:26;18.00;;;6.32;;
71763;SDS011;59602;52.142;5.408;2022-12-18T06:35:54;14.63;;;6.27;;
71763;SDS011;59602;52.142;5.408;2022-12-18T06:38:26;16.27;;;6.25;;
71763;SDS011;59602;52.142;5.408;2022-12-18T06:40:53;15.32;;;5.85;;
71763;SDS011;59602;52.142;5.408;2022-12-18T06:43:20;15.07;;;5.55;;
71763;SDS011;59602;52.142;5.408;2022-12-18T06:45:46;13.93;;;5.28;;
71763;SDS011;59602;52.142;5.408;2022-12-18T06:48:19;15.00;;;5.77;;
71763;SDS011;59602;52.142;5.408;2022-12-18T06:50:46;17.90;;;5.63;;
71763;SDS011;59602;52.142;5.408;2022-12-18T06:53:12;14.32;;;5.95;;
71763;SDS011;59602;52.142;5.408;2022-12-18T06:55:40;16.45;;;5.88;;
71763;SDS011;59602;52.142;5.408;2022-12-18T06:58:07;20.17;;;6.60;;
71763;SDS011;59602;52.142;5.408;2022-12-18T07:00:35;17.53;;;6.03;;
71763;SDS011;59602;52.142;5.408;2022-12-18T07:03:02;15.07;;;5.57;;
71763;SDS011;59602;52.142;5.408;2022-12-18T07:05:29;18.30;;;6.55;;
71763;SDS011;59602;52.142;5.408;2022-12-18T07:07:55;10.93;;;4.93;;
71763;SDS011;59602;52.142;5.408;2022-12-18T07:10:22;14.30;;;6.03;;
71763;SDS011;59602;52.142;5.408;2022-12-18T07:12:48;15.23;;;5.53;;
71763;SDS011;59602;52.142;5.408;2022-12-18T07:15:15;16.20;;;5.75;;
71763;SDS011;59602;52.142;5.408;2022-12-18T07:17:41;13.45;;;5.05;;
71763;SDS011;59602;52.142;5.408;2022-12-18T07:20:08;14.20;;;5.80;;
71763;SDS011;59602;52.142;5.408;2022-12-18T07:22:35;15.10;;;6.32;;
71763;SDS011;59602;52.142;5.408;2022-12-18T07:25:02;15.00;;;5.57;;
71763;SDS011;59602;52.142;5.408;2022-12-18T07:27:29;14.88;;;5.85;;
71763;SDS011;59602;52.142;5.408;2022-12-18T07:29:56;19.10;;;6.75;;
71763;SDS011;59602;52.142;5.408;2022-12-18T07:32:23;14.73;;;5.47;;
71763;SDS011;59602;52.142;5.408;2022-12-18T07:34:49;18.88;;;7.03;;
71763;SDS011;59602;52.142;5.408;2022-12-18T07:37:19;17.07;;;6.57;;
71763;SDS011;59602;52.142;5.408;2022-12-18T07:39:46;15.40;;;5.68;;
71763;SDS011;59602;52.142;5.408;2022-12-18T07:42:15;18.52;;;5.88;;
71763;SDS011;59602;52.142;5.408;2022-12-18T07:44:57;12.85;;;5.82;;
71763;SDS011;59602;52.142;5.408;2022-12-18T07:47:24;13.32;;;5.50;;
71763;SDS011;59602;52.142;5.408;2022-12-18T07:49:50;13.60;;;6.03;;
71763;SDS011;59602;52.142;5.408;2022-12-18T07:52:17;14.90;;;5.57;;
71763;SDS011;59602;52.142;5.408;2022-12-18T07:54:51;14.07;;;5.63;;
71763;SDS011;59602;52.142;5.408;2022-12-18T07:57:17;15.38;;;6.57;;
71763;SDS011;59602;52.142;5.408;2022-12-18T08:00:04;13.95;;;6.03;;
71763;SDS011;59602;52.142;5.408;2022-12-18T08:02:31;18.80;;;6.37;;
71763;SDS011;59602;52.142;5.408;2022-12-18T08:04:58;20.45;;;5.90;;
71763;SDS011;59602;52.142;5.408;2022-12-18T08:07:28;14.95;;;5.90;;
71763;SDS011;59602;52.142;5.408;2022-12-18T08:10:04;12.63;;;5.60;;
71763;SDS011;59602;52.142;5.408;2022-12-18T08:12:32;16.92;;;6.05;;
71763;SDS011;59602;52.142;5.408;2022-12-18T08:15:08;13.90;;;6.27;;
71763;SDS011;59602;52.142;5.408;2022-12-18T08:17:35;15.80;;;6.72;;
71763;SDS011;59602;52.142;5.408;2022-12-18T08:20:01;15.50;;;5.60;;
71763;SDS011;59602;52.142;5.408;2022-12-18T08:22:29;13.90;;;6.35;;
71763;SDS011;59602;52.142;5.408;2022-12-18T08:24:55;14.27;;;5.93;;
71763;SDS011;59602;52.142;5.408;2022-12-18T08:27:22;14.97;;;5.87;;
71763;SDS011;59602;52.142;5.408;2022-12-18T08:29:56;18.17;;;5.72;;
71763;SDS011;59602;52.142;5.408;2022-12-18T08:32:24;13.88;;;5.70;;
71763;SDS011;59602;52.142;5.408;2022-12-18T08:34:53;15.65;;;5.55;;
71763;SDS011;59602;52.142;5.408;2022-12-18T08:37:19;12.50;;;5.30;;
71763;SDS011;59602;52.142;5.408;2022-12-18T08:39:46;14.13;;;5.70;;
71763;SDS011;59602;52.142;5.408;2022-12-18T08:42:12;15.55;;;5.72;;
71763;SDS011;59602;52.142;5.408;2022-12-18T08:44:58;13.07;;;5.53;;
71763;SDS011;59602;52.142;5.408;2022-12-18T08:47:24;11.27;;;5.38;;
71763;SDS011;59602;52.142;5.408;2022-12-18T08:49:53;14.10;;;5.82;;
71763;SDS011;59602;52.142;5.408;2022-12-18T08:52:20;12.93;;;5.73;;
71763;SDS011;59602;52.142;5.408;2022-12-18T08:54:48;11.00;;;5.40;;
71763;SDS011;59602;52.142;5.408;2022-12-18T08:57:14;11.40;;;4.90;;
71763;SDS011;59602;52.142;5.408;2022-12-18T08:59:42;14.02;;;5.60;;
71763;SDS011;59602;52.142;5.408;2022-12-18T09:02:10;16.77;;;6.22;;
71763;SDS011;59602;52.142;5.408;2022-12-18T09:04:37;15.13;;;5.90;;
71763;SDS011;59602;52.142;5.408;2022-12-18T09:07:05;14.30;;;5.80;;
71763;SDS011;59602;52.142;5.408;2022-12-18T09:09:33;15.95;;;6.63;;
71763;SDS011;59602;52.142;5.408;2022-12-18T09:12:00;13.07;;;5.15;;
71763;SDS011;59602;52.142;5.408;2022-12-18T09:14:26;13.73;;;6.30;;
71763;SDS011;59602;52.142;5.408;2022-12-18T09:16:53;12.83;;;6.03;;
71763;SDS011;59602;52.142;5.408;2022-12-18T09:19:20;15.05;;;6.25;;
71763;SDS011;59602;52.142;5.408;2022-12-18T09:21:46;14.30;;;6.40;;
71763;SDS011;59602;52.142;5.408;2022-12-18T09:24:14;12.95;;;6.18;;
71763;SDS011;59602;52.142;5.408;2022-12-18T09:26:42;13.25;;;5.47;;
71763;SDS011;59602;52.142;5.408;2022-12-18T09:29:12;12.00;;;5.37;;
71763;SDS011;59602;52.142;5.408;2022-12-18T09:31:41;15.32;;;6.20;;
71763;SDS011;59602;52.142;5.408;2022-12-18T09:34:08;16.83;;;7.03;;
71763;SDS011;59602;52.142;5.408;2022-12-18T09:36:34;13.18;;;5.97;;
71763;SDS011;59602;52.142;5.408;2022-12-18T09:39:01;13.23;;;5.82;;
71763;SDS011;59602;52.142;5.408;2022-12-18T09:41:39;13.30;;;5.73;;
71763;SDS011;59602;52.142;5.408;2022-12-18T09:44:18;12.70;;;6.28;;
71763;SDS011;59602;52.142;5.408;2022-12-18T09:46:51;14.93;;;6.03;;
71763;SDS011;59602;52.142;5.408;2022-12-18T09:49:23;13.10;;;5.97;;
71763;SDS011;59602;52.142;5.408;2022-12-18T09:51:54;16.27;;;6.40;;
71763;SDS011;59602;52.142;5.408;2022-12-18T09:54:32;17.70;;;6.33;;
71763;SDS011;59602;52.142;5.408;2022-12-18T09:57:04;15.77;;;7.00;;
71763;SDS011;59602;52.142;5.408;2022-12-18T09:59:37;18.70;;;6.30;;
71763;SDS011;59602;52.142;5.408;2022-12-18T10:02:14;13.98;;;5.80;;
71763;SDS011;59602;52.142;5.408;2022-12-18T10:04:54;19.75;;;6.40;;
71763;SDS011;59602;52.142;5.408;2022-12-18T10:07:50;15.07;;;6.40;;
71763;SDS011;59602;52.142;5.408;2022-12-18T10:10:27;13.75;;;6.13;;
71763;SDS011;59602;52.142;5.408;2022-12-18T10:13:00;14.60;;;6.05;;
71763;SDS011;59602;52.142;5.408;2022-12-18T10:15:40;16.90;;;6.45;;
71763;SDS011;59602;52.142;5.408;2022-12-18T10:21:12;14.27;;;5.83;;
71763;SDS011;59602;52.142;5.408;2022-12-18T10:23:51;16.13;;;5.90;;
71763;SDS011;59602;52.142;5.408;2022-12-18T10:26:27;14.48;;;5.53;;
71763;SDS011;59602;52.142;5.408;2022-12-18T10:28:54;13.82;;;5.60;;
71763;SDS011;59602;52.142;5.408;2022-12-18T10:31:30;11.65;;;4.40;;
71763;SDS011;59602;52.142;5.408;2022-12-18T10:33:57;12.83;;;5.67;;
71763;SDS011;59602;52.142;5.408;2022-12-18T10:36:24;10.75;;;4.43;;
71763;SDS011;59602;52.142;5.408;2022-12-18T10:38:51;13.13;;;4.25;;
71763;SDS011;59602;52.142;5.408;2022-12-18T10:43:46;12.50;;;5.70;;
71763;SDS011;59602;52.142;5.408;2022-12-18T10:46:14;13.60;;;5.20;;
71763;SDS011;59602;52.142;5.408;2022-12-18T10:51:24;11.90;;;4.57;;
71763;SDS011;59602;52.142;5.408;2022-12-18T10:53:57;11.82;;;4.50;;
71763;SDS011;59602;52.142;5.408;2022-12-18T10:56:28;11.18;;;4.60;;
71763;SDS011;59602;52.142;5.408;2022-12-18T10:58:58;12.43;;;4.57;;
71763;SDS011;59602;52.142;5.408;2022-12-18T11:01:27;9.60;;;4.68;;
71763;SDS011;59602;52.142;5.408;2022-12-18T11:06:28;15.43;;;5.20;;
71763;SDS011;59602;52.142;5.408;2022-12-18T11:09:03;13.18;;;5.03;;
71763;SDS011;59602;52.142;5.408;2022-12-18T11:11:40;14.63;;;5.43;;
71763;SDS011;59602;52.142;5.408;2022-12-18T11:14:12;12.32;;;4.88;;
71763;SDS011;59602;52.142;5.408;2022-12-18T11:16:46;14.25;;;5.47;;
71763;SDS011;59602;52.142;5.408;2022-12-18T11:19:35;10.95;;;4.38;;
71763;SDS011;59602;52.142;5.408;2022-12-18T11:22:17;13.00;;;4.85;;
71763;SDS011;59602;52.142;5.408;2022-12-18T11:24:54;12.53;;;4.93;;
71763;SDS011;59602;52.142;5.408;2022-12-18T11:27:48;11.23;;;4.18;;
71763;SDS011;59602;52.142;5.408;2022-12-18T11:30:28;12.05;;;4.70;;
71763;SDS011;59602;52.142;5.408;2022-12-18T11:33:15;10.45;;;4.10;;
71763;SDS011;59602;52.142;5.408;2022-12-18T11:35:57;11.93;;;5.07;;
71763;SDS011;59602;52.142;5.408;2022-12-18T11:38:31;14.20;;;5.10;;
71763;SDS011;59602;52.142;5.408;2022-12-18T11:41:04;12.95;;;4.57;;
71763;SDS011;59602;52.142;5.408;2022-12-18T11:44:14;10.45;;;4.50;;
71763;SDS011;59602;52.142;5.408;2022-12-18T11:46:47;10.95;;;4.30;;
71763;SDS011;59602;52.142;5.408;2022-12-18T11:49:26;11.48;;;4.35;;
71763;SDS011;59602;52.142;5.408;2022-12-18T11:52:04;11.73;;;4.57;;
71763;SDS011;59602;52.142;5.408;2022-12-18T11:54:41;11.82;;;4.15;;
71763;SDS011;59602;52.142;5.408;2022-12-18T11:59:52;11.65;;;4.80;;
71763;SDS011;59602;52.142;5.408;2022-12-18T12:02:40;12.40;;;4.45;;
71763;SDS011;59602;52.142;5.408;2022-12-18T12:08:04;13.27;;;4.78;;
71763;SDS011;59602;52.142;5.408;2022-12-18T12:10:48;11.40;;;4.80;;
71763;SDS011;59602;52.142;5.408;2022-12-18T12:13:30;9.65;;;4.82;;
71763;SDS011;59602;52.142;5.408;2022-12-18T12:16:10;13.65;;;5.20;;
71763;SDS011;59602;52.142;5.408;2022-12-18T12:21:35;12.63;;;5.22;;
71763;SDS011;59602;52.142;5.408;2022-12-18T12:24:26;13.52;;;4.82;;
71763;SDS011;59602;52.142;5.408;2022-12-18T12:33:43;12.90;;;5.63;;
71763;SDS011;59602;52.142;5.408;2022-12-18T12:47:09;12.63;;;4.50;;
71763;SDS011;59602;52.142;5.408;2022-12-18T12:49:43;12.77;;;5.28;;
71763;SDS011;59602;52.142;5.408;2022-12-18T14:36:36;11.50;;;4.93;;
71763;SDS011;59602;52.142;5.408;2022-12-18T15:05:35;12.77;;;5.38;;
71763;SDS011;59602;52.142;5.408;2022-12-18T15:41:46;14.23;;;5.63;;
71763;SDS011;59602;52.142;5.408;2022-12-18T15:44:54;14.40;;;6.03;;
71763;SDS011;59602;52.142;5.408;2022-12-18T15:47:21;13.20;;;5.82;;
71763;SDS011;59602;52.142;5.408;2022-12-18T15:49:48;13.98;;;6.00;;
71763;SDS011;59602;52.142;5.408;2022-12-18T15:52:15;15.77;;;5.30;;
71763;SDS011;59602;52.142;5.408;2022-12-18T15:54:52;13.98;;;5.60;;
71763;SDS011;59602;52.142;5.408;2022-12-18T16:01:16;21.48;;;7.32;;
71763;SDS011;59602;52.142;5.408;2022-12-18T16:04:38;17.40;;;7.40;;
71763;SDS011;59602;52.142;5.408;2022-12-18T16:08:22;14.63;;;6.50;;
71763;SDS011;59602;52.142;5.408;2022-12-18T16:16:02;14.25;;;5.93;;
71763;SDS011;59602;52.142;5.408;2022-12-18T16:22:30;16.15;;;5.95;;
71763;SDS011;59602;52.142;5.408;2022-12-18T16:24:57;14.63;;;6.40;;
71763;SDS011;59602;52.142;5.408;2022-12-18T16:28:14;15.68;;;6.03;;
71763;SDS011;59602;52.142;5.408;2022-12-18T16:31:22;14.95;;;6.40;;
71763;SDS011;59602;52.142;5.408;2022-12-18T16:37:44;17.55;;;6.70;;
71763;SDS011;59602;52.142;5.408;2022-12-18T16:41:17;14.47;;;6.70;;
71763;SDS011;59602;52.142;5.408;2022-12-18T16:48:14;15.98;;;7.05;;
71763;SDS011;59602;52.142;5.408;2022-12-18T16:51:20;16.60;;;6.35;;
71763;SDS011;59602;52.142;5.408;2022-12-18T16:54:24;16.95;;;6.70;;
71763;SDS011;59602;52.142;5.408;2022-12-18T16:57:26;18.70;;;6.60;;
71763;SDS011;59602;52.142;5.408;2022-12-18T17:00:54;16.17;;;6.40;;
71763;SDS011;59602;52.142;5.408;2022-12-18T17:04:30;16.80;;;6.65;;
71763;SDS011;59602;52.142;5.408;2022-12-18T17:07:14;18.45;;;8.00;;
71763;SDS011;59602;52.142;5.408;2022-12-18T17:10:12;15.02;;;6.32;;
71763;SDS011;59602;52.142;5.408;2022-12-18T17:13:42;15.77;;;6.20;;
71763;SDS011;59602;52.142;5.408;2022-12-18T17:17:05;18.98;;;6.97;;
71763;SDS011;59602;52.142;5.408;2022-12-18T17:20:20;15.90;;;6.15;;
71763;SDS011;59602;52.142;5.408;2022-12-18T17:26:48;18.35;;;6.60;;
71763;SDS011;59602;52.142;5.408;2022-12-18T17:29:44;17.10;;;7.10;;
71763;SDS011;59602;52.142;5.408;2022-12-18T17:32:58;16.98;;;6.68;;
71763;SDS011;59602;52.142;5.408;2022-12-18T17:35:46;17.98;;;6.65;;
71763;SDS011;59602;52.142;5.408;2022-12-18T17:39:17;17.38;;;6.82;;
71763;SDS011;59602;52.142;5.408;2022-12-18T18:06:57;18.30;;;7.65;;
71763;SDS011;59602;52.142;5.408;2022-12-18T18:09:23;18.88;;;8.18;;
71763;SDS011;59602;52.142;5.408;2022-12-18T18:15:10;20.58;;;7.40;;
71763;SDS011;59602;52.142;5.408;2022-12-18T18:17:39;20.38;;;7.20;;
71763;SDS011;59602;52.142;5.408;2022-12-18T18:20:05;19.58;;;7.03;;
71763;SDS011;59602;52.142;5.408;2022-12-18T18:22:36;20.10;;;7.00;;
71763;SDS011;59602;52.142;5.408;2022-12-18T18:30:52;18.10;;;7.13;;
71763;SDS011;59602;52.142;5.408;2022-12-18T19:01:13;17.48;;;7.03;;
71763;SDS011;59602;52.142;5.408;2022-12-18T19:03:43;20.60;;;7.50;;
71763;SDS011;59602;52.142;5.408;2022-12-18T19:06:13;18.60;;;7.13;;
71763;SDS011;59602;52.142;5.408;2022-12-18T19:08:44;15.90;;;6.90;;
71763;SDS011;59602;52.142;5.408;2022-12-18T19:11:13;20.67;;;7.53;;
71763;SDS011;59602;52.142;5.408;2022-12-18T19:14:02;20.05;;;7.93;;
71763;SDS011;59602;52.142;5.408;2022-12-18T19:16:32;18.45;;;6.95;;
71763;SDS011;59602;52.142;5.408;2022-12-18T19:19:00;21.95;;;8.45;;
71763;SDS011;59602;52.142;5.408;2022-12-18T19:21:28;24.67;;;8.73;;
71763;SDS011;59602;52.142;5.408;2022-12-18T19:23:59;56.08;;;18.00;;
71763;SDS011;59602;52.142;5.408;2022-12-18T19:26:26;32.67;;;13.60;;
71763;SDS011;59602;52.142;5.408;2022-12-18T19:28:59;21.92;;;8.82;;
71763;SDS011;59602;52.142;5.408;2022-12-18T19:31:27;19.40;;;8.15;;
71763;SDS011;59602;52.142;5.408;2022-12-18T19:34:00;18.40;;;7.60;;
71763;SDS011;59602;52.142;5.408;2022-12-18T19:36:28;19.13;;;6.82;;
71763;SDS011;59602;52.142;5.408;2022-12-18T19:38:57;17.55;;;6.97;;
71763;SDS011;59602;52.142;5.408;2022-12-18T19:41:27;17.42;;;7.10;;
71763;SDS011;59602;52.142;5.408;2022-12-18T19:43:58;19.10;;;7.20;;
71763;SDS011;59602;52.142;5.408;2022-12-18T19:46:32;18.70;;;7.03;;
71763;SDS011;59602;52.142;5.408;2022-12-18T19:48:59;18.63;;;7.38;;
71763;SDS011;59602;52.142;5.408;2022-12-18T19:51:27;19.58;;;7.63;;
71763;SDS011;59602;52.142;5.408;2022-12-18T19:53:55;17.95;;;6.97;;
71763;SDS011;59602;52.142;5.408;2022-12-18T19:56:27;19.23;;;7.85;;
71763;SDS011;59602;52.142;5.408;2022-12-18T19:58:56;19.33;;;7.03;;
71763;SDS011;59602;52.142;5.408;2022-12-18T20:01:23;16.33;;;7.03;;
71763;SDS011;59602;52.142;5.408;2022-12-18T20:03:51;18.17;;;7.70;;
71763;SDS011;59602;52.142;5.408;2022-12-18T20:06:31;18.83;;;8.32;;